createdAt,value
2023-04-06T00:02:33.197Z,1.63
2023-04-06T00:06:36.690Z,1.67
2023-04-06T00:10:40.053Z,1.68
2023-04-06T00:14:44.814Z,1.70
2023-04-06T00:18:48.369Z,1.71
2023-04-06T00:22:51.673Z,1.70
2023-04-06T00:26:55.428Z,1.67
2023-04-06T00:31:00.860Z,1.61
2023-04-06T00:35:05.516Z,1.53
2023-04-06T00:39:08.892Z,1.45
2023-04-06T00:43:13.985Z,1.39
2023-04-06T00:47:19.134Z,1.32
2023-04-06T00:51:23.053Z,1.25
2023-04-06T00:55:26.229Z,1.20
2023-04-06T00:59:32.479Z,1.16
2023-04-06T01:03:37.378Z,1.14
2023-04-06T01:07:41.166Z,1.14
2023-04-06T01:11:44.534Z,1.16
2023-04-06T01:15:49.539Z,1.19
2023-04-06T01:19:54.943Z,1.18
2023-04-06T01:28:21.463Z,1.14
2023-04-06T01:32:25.054Z,1.13
2023-04-06T01:36:28.446Z,1.15
2023-04-06T01:40:33.643Z,1.15
2023-04-06T01:44:36.893Z,1.16
2023-04-06T01:48:40.193Z,1.19
2023-04-06T01:52:43.377Z,1.22
2023-04-06T01:56:52.317Z,1.25
2023-04-06T02:00:56.465Z,1.27
2023-04-06T02:04:59.846Z,1.29
2023-04-06T02:09:02.937Z,1.32
2023-04-06T02:13:07.397Z,1.36
2023-04-06T02:17:10.831Z,1.38
2023-04-06T02:21:14.465Z,1.41
2023-04-06T02:25:18.204Z,1.43
2023-04-06T02:29:24.018Z,1.42
2023-04-06T02:33:27.186Z,1.36
2023-04-06T02:37:31.294Z,1.29
2023-04-06T02:41:34.661Z,1.22
2023-04-06T02:45:39.759Z,1.15
2023-04-06T02:49:43.266Z,1.07
2023-04-06T02:53:46.968Z,1.04
2023-04-06T02:57:50.372Z,1.01
2023-04-06T03:01:55.912Z,0.99
2023-04-06T03:06:00.626Z,0.96
2023-04-06T03:10:04.332Z,0.97
2023-04-06T03:14:07.538Z,0.97
2023-04-06T03:18:12.485Z,0.98
2023-04-06T03:22:15.458Z,0.98
2023-04-06T03:26:19.100Z,0.96
2023-04-06T03:30:22.470Z,0.93
2023-04-06T03:34:27.823Z,0.93
2023-04-06T03:38:31.100Z,0.92
2023-04-06T03:42:34.937Z,0.95
2023-04-06T03:46:38.194Z,0.95
2023-04-06T03:50:43.561Z,0.95
2023-04-06T03:54:46.799Z,0.92
2023-04-06T03:58:52.787Z,0.85
2023-04-06T04:02:56.676Z,0.76
2023-04-06T04:07:01.510Z,0.66
2023-04-06T04:11:04.707Z,0.56
2023-04-06T04:15:08.902Z,0.48
2023-04-06T04:19:12.171Z,0.41
2023-04-06T04:23:17.315Z,0.34
2023-04-06T04:27:20.914Z,0.28
2023-04-06T04:31:24.348Z,0.26
2023-04-06T04:35:27.584Z,0.30
2023-04-06T04:39:33.227Z,0.35
2023-04-06T04:43:36.476Z,0.39
2023-04-06T04:47:40.050Z,0.40
2023-04-06T04:51:43.382Z,0.38
2023-04-06T04:55:48.647Z,0.34
2023-04-06T04:59:52.155Z,0.31
2023-04-06T05:03:56.677Z,0.28
2023-04-06T05:08:00.202Z,0.27
2023-04-06T05:12:05.704Z,0.32
2023-04-06T05:16:09.116Z,0.39
2023-04-06T05:20:13.727Z,0.50
2023-04-06T05:24:17.339Z,0.65
2023-04-06T05:28:22.538Z,0.85
2023-04-06T05:32:26.117Z,1.05
2023-04-06T05:36:29.612Z,1.27
2023-04-06T05:40:32.814Z,1.51
2023-04-06T05:44:39.756Z,1.75
2023-04-06T05:48:43.045Z,1.96
2023-04-06T05:52:47.798Z,2.18
2023-04-06T05:56:51.070Z,2.43
2023-04-06T06:00:59.568Z,2.73
2023-04-06T06:05:03.521Z,3.03
2023-04-06T06:09:07.395Z,3.37
2023-04-06T06:13:11.326Z,3.72
2023-04-06T06:17:16.701Z,4.05
2023-04-06T06:21:19.934Z,4.39
2023-04-06T06:25:25.929Z,4.68
2023-04-06T06:29:29.437Z,4.98
2023-04-06T06:33:34.613Z,5.24
2023-04-06T06:37:37.725Z,5.49
2023-04-06T06:41:41.925Z,5.73
2023-04-06T06:45:45.368Z,5.95
2023-04-06T06:49:50.540Z,6.21
2023-04-06T06:53:53.586Z,6.45
2023-04-06T06:57:57.474Z,6.67
2023-04-06T07:02:00.859Z,6.90
2023-04-06T07:06:06.437Z,7.11
2023-04-06T07:10:11.311Z,7.30
2023-04-06T07:14:15.273Z,7.46
2023-04-06T07:18:18.762Z,7.58
2023-04-06T07:22:24.156Z,7.69
2023-04-06T07:26:27.575Z,7.76
2023-04-06T07:30:32.144Z,7.85
2023-04-06T07:34:35.950Z,7.92
2023-04-06T07:38:45.008Z,8.07
2023-04-06T07:42:48.687Z,8.22
2023-04-06T07:46:52.528Z,8.40
2023-04-06T07:51:03.788Z,8.66
2023-04-06T07:55:10.655Z,8.93
2023-04-06T07:59:14.867Z,9.21
2023-04-06T08:03:18.474Z,9.52
2023-04-06T08:07:21.988Z,9.83
2023-04-06T08:11:28.100Z,10.16
2023-04-06T08:15:31.578Z,10.45
2023-04-06T08:19:38.556Z,10.75
2023-04-06T08:23:42.089Z,11.06
2023-04-06T08:27:46.793Z,11.38
2023-04-06T08:31:50.466Z,11.64
2023-04-06T08:35:54.200Z,11.92
2023-04-06T08:40:00.196Z,12.17
2023-04-06T08:44:06.387Z,12.42
2023-04-06T08:48:10.744Z,12.66
2023-04-06T08:52:14.744Z,12.93
2023-04-06T08:56:18.536Z,13.17
2023-04-06T09:00:23.930Z,13.41
2023-04-06T09:04:29.186Z,13.60
2023-04-06T09:08:32.736Z,13.77
2023-04-06T09:12:37.407Z,13.93
2023-04-06T09:16:47.825Z,14.11
2023-04-06T09:20:59.779Z,14.29
2023-04-06T09:25:04.348Z,14.47
2023-04-06T09:29:07.818Z,14.68
2023-04-06T09:33:12.847Z,14.90
2023-04-06T09:37:16.760Z,15.16
2023-04-06T09:41:24.631Z,15.43
2023-04-06T09:45:32.103Z,15.68
2023-04-06T09:49:37.982Z,16.00
2023-04-06T09:53:44.746Z,16.25
2023-04-06T09:57:54.071Z,16.42
2023-04-06T10:02:01.030Z,16.60
2023-04-06T10:06:08.835Z,16.66
2023-04-06T10:10:14.124Z,16.70
2023-04-06T10:14:18.673Z,16.83
2023-04-06T10:18:22.632Z,17.01
2023-04-06T10:22:35.721Z,17.26
2023-04-06T10:26:39.646Z,17.39
2023-04-06T10:30:46.451Z,17.58
2023-04-06T10:34:49.796Z,17.71
2023-04-06T10:39:00.468Z,17.80
2023-04-06T10:43:10.892Z,17.85
2023-04-06T10:47:21.303Z,17.92
2023-04-06T10:51:29.260Z,17.84
2023-04-06T10:55:35.251Z,17.60
2023-04-06T10:59:38.561Z,17.44
2023-04-06T11:03:48.527Z,17.45
2023-04-06T11:07:52.157Z,17.45
2023-04-06T11:11:58.487Z,17.53
2023-04-06T11:16:01.675Z,17.61
2023-04-06T11:20:08.101Z,17.64
2023-04-06T11:24:13.411Z,17.57
2023-04-06T11:28:18.581Z,17.52
2023-04-06T11:32:25.765Z,17.53
2023-04-06T11:36:31.438Z,17.62
2023-04-06T11:40:34.933Z,17.65
2023-04-06T11:44:41.602Z,17.67
2023-04-06T11:48:47.891Z,17.69
2023-04-06T11:53:01.707Z,17.66
2023-04-06T11:57:06.138Z,17.61
2023-04-06T12:01:11.706Z,17.52
2023-04-06T12:05:15.425Z,17.49
2023-04-06T12:09:20.700Z,17.58
2023-04-06T12:13:23.891Z,17.77
2023-04-06T12:17:29.259Z,17.99
2023-04-06T12:21:33.558Z,18.13
2023-04-06T12:25:38.085Z,18.22
2023-04-06T12:29:41.447Z,18.28
2023-04-06T12:33:49.053Z,18.26
2023-04-06T12:37:52.529Z,18.19
2023-04-06T12:41:56.844Z,18.13
2023-04-06T12:46:00.838Z,18.14
2023-04-06T12:50:08.100Z,18.11
2023-04-06T12:54:12.364Z,18.07
2023-04-06T12:58:16.528Z,18.03
2023-04-06T13:02:21.717Z,18.04
2023-04-06T13:06:28.902Z,18.08
2023-04-06T13:10:32.380Z,18.11
2023-04-06T13:14:36.015Z,18.11
2023-04-06T13:18:40.200Z,18.06
2023-04-06T13:22:45.577Z,17.94
2023-04-06T13:26:48.980Z,17.87
2023-04-06T13:35:09.716Z,17.72
2023-04-06T13:39:13.075Z,17.71
2023-04-06T13:43:16.627Z,17.72
2023-04-06T13:47:20.078Z,17.79
2023-04-06T13:51:24.636Z,17.82
2023-04-06T13:55:27.673Z,17.79
2023-04-06T13:59:35.256Z,17.77
2023-04-06T14:03:38.498Z,17.78
2023-04-06T14:07:43.326Z,17.84
2023-04-06T14:11:46.327Z,17.84
2023-04-06T14:15:50.130Z,17.77
2023-04-06T14:19:54.350Z,17.66
2023-04-06T14:23:59.948Z,17.61
2023-04-06T14:28:03.676Z,17.63
2023-04-06T14:32:08.115Z,17.67
2023-04-06T14:36:12.217Z,17.70
2023-04-06T14:40:17.449Z,17.70
2023-04-06T14:44:20.838Z,17.72
2023-04-06T14:48:24.991Z,17.78
2023-04-06T14:52:29.959Z,17.81
2023-04-06T14:56:37.039Z,17.86
2023-04-06T15:00:40.911Z,17.80
2023-04-06T15:04:45.336Z,17.72
2023-04-06T15:08:49.022Z,17.54
2023-04-06T15:12:54.030Z,17.42
2023-04-06T15:16:57.401Z,17.31
2023-04-06T15:21:01.020Z,17.23
2023-04-06T15:25:04.383Z,17.16
2023-04-06T15:29:09.300Z,17.08
2023-04-06T15:33:12.855Z,16.98
2023-04-06T15:37:16.791Z,16.90
2023-04-06T15:41:19.982Z,16.84
2023-04-06T15:45:25.328Z,16.78
2023-04-06T15:49:29.335Z,16.72
2023-04-06T15:53:32.488Z,16.69
2023-04-06T15:57:35.932Z,16.59
2023-04-06T16:01:42.946Z,16.46
2023-04-06T16:05:53.865Z,16.25
2023-04-06T16:10:03.266Z,16.06
2023-04-06T16:14:06.580Z,15.87
2023-04-06T16:18:11.847Z,15.70
2023-04-06T16:22:16.784Z,15.53
2023-04-06T16:26:20.438Z,15.36
2023-04-06T16:30:24.971Z,15.22
2023-04-06T16:34:34.288Z,15.07
2023-04-06T16:38:37.656Z,14.91
2023-04-06T16:42:41.760Z,14.75
2023-04-06T16:46:45.477Z,14.60
2023-04-06T16:50:50.539Z,14.45
2023-04-06T16:54:54.265Z,14.25
2023-04-06T16:58:57.792Z,14.06
2023-04-06T17:07:19.674Z,13.62
2023-04-06T17:11:28.489Z,13.41
2023-04-06T17:15:32.537Z,13.13
2023-04-06T17:19:35.578Z,12.87
2023-04-06T17:23:40.689Z,12.60
2023-04-06T17:27:43.932Z,12.30
2023-04-06T17:31:47.636Z,11.99
2023-04-06T17:35:50.804Z,11.66
2023-04-06T17:39:55.439Z,11.32
2023-04-06T17:43:58.318Z,10.96
2023-04-06T17:48:01.475Z,10.63
2023-04-06T17:52:04.491Z,10.31
2023-04-06T17:56:09.256Z,10.02
2023-04-06T18:00:13.838Z,9.76
2023-04-06T18:04:17.835Z,9.51
2023-04-06T18:08:22.498Z,9.30
2023-04-06T18:12:27.458Z,9.12
2023-04-06T18:16:30.648Z,8.93
2023-04-06T18:20:34.556Z,8.77
2023-04-06T18:24:42.361Z,8.63
2023-04-06T18:28:48.531Z,8.49
2023-04-06T18:32:52.997Z,8.36
2023-04-06T18:36:56.811Z,8.24
2023-04-06T18:41:00.010Z,8.11
2023-04-06T18:45:05.246Z,8.02
2023-04-06T18:49:08.870Z,7.92
2023-04-06T18:53:12.648Z,7.85
2023-04-06T18:57:17.291Z,7.76
2023-04-06T19:01:30.094Z,7.68
2023-04-06T19:05:32.991Z,7.65
2023-04-06T19:09:36.404Z,7.56
2023-04-06T19:13:39.512Z,7.46
2023-04-06T19:17:44.633Z,7.42
2023-04-06T19:21:48.432Z,7.36
2023-04-06T19:25:54.334Z,7.33
2023-04-06T19:29:59.400Z,7.28
2023-04-06T19:34:04.773Z,7.25
2023-04-06T19:38:07.956Z,7.20
2023-04-06T19:42:11.250Z,7.15
2023-04-06T19:46:15.567Z,7.12
2023-04-06T19:50:20.587Z,7.06
2023-04-06T19:54:23.713Z,7.02
2023-04-06T20:02:47.641Z,6.92
2023-04-06T20:06:52.249Z,6.84
2023-04-06T20:11:03.344Z,6.78
2023-04-06T20:15:06.979Z,6.68
2023-04-06T20:19:10.773Z,6.57
2023-04-06T20:23:15.550Z,6.44
2023-04-06T20:27:19.133Z,6.32
2023-04-06T20:31:21.979Z,6.22
2023-04-06T20:35:25.291Z,6.10
2023-04-06T20:39:29.766Z,5.98
2023-04-06T20:43:33.499Z,5.87
2023-04-06T20:47:36.776Z,5.75
2023-04-06T20:51:39.828Z,5.67
2023-04-06T20:55:44.259Z,5.62
2023-04-06T20:59:47.974Z,5.60
2023-04-06T21:03:51.110Z,5.55
2023-04-06T21:07:54.994Z,5.52
2023-04-06T21:11:59.377Z,5.50
2023-04-06T21:16:03.293Z,5.49
2023-04-06T21:20:07.274Z,5.48
2023-04-06T21:24:12.098Z,5.49
2023-04-06T21:28:16.391Z,5.48
2023-04-06T21:32:19.682Z,5.47
2023-04-06T21:36:22.680Z,5.51
2023-04-06T21:40:26.299Z,5.52
2023-04-06T21:44:30.875Z,5.53
2023-04-06T21:48:34.629Z,5.53
2023-04-06T21:52:37.575Z,5.51
2023-04-06T21:56:40.964Z,5.49
2023-04-06T22:00:46.349Z,5.47
2023-04-06T22:04:50.051Z,5.46
2023-04-06T22:08:53.432Z,5.47
2023-04-06T22:12:57.054Z,5.48
2023-04-06T22:17:01.376Z,5.49
2023-04-06T22:21:05.267Z,5.48
2023-04-06T22:25:09.326Z,5.51
2023-04-06T22:29:13.012Z,5.50
2023-04-06T22:33:17.437Z,5.46
2023-04-06T22:37:20.839Z,5.42
2023-04-06T22:41:24.016Z,5.35
2023-04-06T22:45:28.278Z,5.28
2023-04-06T22:49:32.795Z,5.18
2023-04-06T22:53:36.196Z,5.10
2023-04-06T22:57:39.107Z,5.01
2023-04-06T23:01:42.875Z,4.94
2023-04-06T23:05:47.813Z,4.86
2023-04-06T23:09:51.323Z,4.78
2023-04-06T23:13:54.309Z,4.71
2023-04-06T23:17:57.536Z,4.64
2023-04-06T23:22:02.381Z,4.60
2023-04-06T23:26:06.689Z,4.53
2023-04-06T23:30:10.802Z,4.48
2023-04-06T23:34:14.418Z,4.43
2023-04-06T23:38:19.348Z,4.35
2023-04-06T23:42:22.498Z,4.23
2023-04-06T23:46:32.516Z,4.08
2023-04-06T23:50:36.647Z,3.95
2023-04-06T23:54:41.245Z,3.83
2023-04-06T23:58:44.558Z,3.70
